createdAt,value
2022-10-14T00:02:21.998Z,0.90
2022-10-14T00:04:48.652Z,1.10
2022-10-14T00:07:15.238Z,1.00
2022-10-14T00:09:42.824Z,0.90
2022-10-14T00:12:09.527Z,0.90
2022-10-14T00:14:36.111Z,0.70
2022-10-14T00:17:02.671Z,0.90
2022-10-14T00:19:29.254Z,1.13
2022-10-14T00:21:55.849Z,0.80
2022-10-14T00:24:22.490Z,0.90
2022-10-14T00:26:49.131Z,1.35
2022-10-14T00:29:18.905Z,1.23
2022-10-14T00:31:46.290Z,1.00
2022-10-14T00:34:15.813Z,1.05
2022-10-14T00:36:43.320Z,1.00
2022-10-14T00:39:10.669Z,0.90
2022-10-14T00:41:38.240Z,0.88
2022-10-14T00:44:27.495Z,0.80
2022-10-14T00:46:55.081Z,1.13
2022-10-14T00:49:41.018Z,1.00
2022-10-14T00:52:16.547Z,0.85
2022-10-14T00:54:54.309Z,1.00
2022-10-14T00:57:22.887Z,0.93
2022-10-14T00:59:49.830Z,0.88
2022-10-14T01:02:16.397Z,1.00
2022-10-14T01:04:44.611Z,1.05
2022-10-14T01:07:52.244Z,0.95
2022-10-14T01:10:24.882Z,1.00
2022-10-14T01:13:04.536Z,1.02
2022-10-14T01:15:37.303Z,1.10
2022-10-14T01:18:15.648Z,1.10
2022-10-14T01:20:42.181Z,1.10
2022-10-14T01:23:33.351Z,1.10
2022-10-14T01:26:28.765Z,1.02
2022-10-14T01:29:32.806Z,0.90
2022-10-14T01:32:09.405Z,1.05
2022-10-14T01:34:41.492Z,1.08
2022-10-14T01:37:16.684Z,1.00
2022-10-14T01:39:48.040Z,1.30
2022-10-14T01:42:20.087Z,1.15
2022-10-14T01:44:53.413Z,0.90
2022-10-14T01:47:21.577Z,1.05
2022-10-14T01:49:57.721Z,0.98
2022-10-14T01:52:30.016Z,1.17
2022-10-14T01:55:01.346Z,1.30
2022-10-14T01:57:31.139Z,1.00
2022-10-14T01:59:58.521Z,1.05
2022-10-14T02:02:25.852Z,0.80
2022-10-14T02:04:52.435Z,0.93
2022-10-14T02:07:27.991Z,0.90
2022-10-14T02:10:09.830Z,1.00
2022-10-14T02:12:45.416Z,0.95
2022-10-14T02:15:17.964Z,1.00
2022-10-14T02:18:03.228Z,1.08
2022-10-14T02:20:33.362Z,1.10
2022-10-14T02:23:11.033Z,1.10
2022-10-14T02:25:41.332Z,0.80
2022-10-14T02:28:10.991Z,0.95
2022-10-14T02:30:45.774Z,0.98
2022-10-14T02:33:13.421Z,0.80
2022-10-14T02:35:41.874Z,1.13
2022-10-14T02:38:09.850Z,1.00
2022-10-14T02:40:42.267Z,1.02
2022-10-14T02:43:10.951Z,0.88
2022-10-14T02:45:39.426Z,1.00
2022-10-14T02:48:06.574Z,1.05
2022-10-14T02:50:33.407Z,1.00
2022-10-14T02:52:59.977Z,1.23
2022-10-14T02:55:26.889Z,0.80
2022-10-14T02:57:53.565Z,0.93
2022-10-14T03:00:21.071Z,1.10
2022-10-14T03:02:47.792Z,1.15
2022-10-14T03:05:14.506Z,0.90
2022-10-14T03:07:41.103Z,1.13
2022-10-14T03:10:07.961Z,0.85
2022-10-14T03:12:34.539Z,0.93
2022-10-14T03:15:01.126Z,0.80
2022-10-14T03:17:27.727Z,0.80
2022-10-14T03:19:54.318Z,0.85
2022-10-14T03:22:21.072Z,0.90
2022-10-14T03:24:47.815Z,1.05
2022-10-14T03:27:14.373Z,1.13
2022-10-14T03:29:41.047Z,0.88
2022-10-14T03:32:07.649Z,1.10
2022-10-14T03:34:34.214Z,0.85
2022-10-14T03:37:01.090Z,1.00
2022-10-14T03:39:27.950Z,0.93
2022-10-14T03:41:54.599Z,0.90
2022-10-14T03:44:21.157Z,1.10
2022-10-14T03:46:47.779Z,0.90
2022-10-14T03:49:14.320Z,0.80
2022-10-14T03:51:40.890Z,1.00
2022-10-14T03:54:07.544Z,0.90
2022-10-14T03:56:34.203Z,1.00
2022-10-14T03:59:00.788Z,0.93
2022-10-14T04:01:27.490Z,0.90
2022-10-14T04:03:54.108Z,1.02
2022-10-14T04:06:20.657Z,0.82
2022-10-14T04:08:47.249Z,0.90
2022-10-14T04:11:13.810Z,0.95
2022-10-14T04:13:40.455Z,0.90
2022-10-14T04:16:09.671Z,1.00
2022-10-14T04:18:36.657Z,0.80
2022-10-14T04:21:06.975Z,0.90
2022-10-14T04:23:33.782Z,0.93
2022-10-14T04:26:05.184Z,0.80
2022-10-14T04:28:32.612Z,0.85
2022-10-14T04:30:59.236Z,1.00
2022-10-14T04:33:26.416Z,1.00
2022-10-14T04:36:00.746Z,0.98
2022-10-14T04:38:27.808Z,1.08
2022-10-14T04:40:54.864Z,0.93
2022-10-14T04:43:21.857Z,1.00
2022-10-14T04:45:48.618Z,1.10
2022-10-14T04:48:16.140Z,0.98
2022-10-14T04:50:42.858Z,0.90
2022-10-14T04:53:13.544Z,0.85
2022-10-14T04:55:40.735Z,0.90
2022-10-14T04:58:07.553Z,0.90
2022-10-14T05:00:34.105Z,0.85
2022-10-14T05:03:00.676Z,1.00
2022-10-14T05:05:27.345Z,0.90
2022-10-14T05:07:53.998Z,1.20
2022-10-14T05:10:20.619Z,1.35
2022-10-14T05:12:47.801Z,1.08
2022-10-14T05:15:15.405Z,0.80
2022-10-14T05:17:44.591Z,1.13
2022-10-14T05:20:12.601Z,0.98
2022-10-14T05:22:39.399Z,1.20
2022-10-14T05:25:06.690Z,0.95
2022-10-14T05:27:33.263Z,1.17
2022-10-14T05:29:59.810Z,1.00
2022-10-14T05:32:26.374Z,1.10
2022-10-14T05:34:52.958Z,1.10
2022-10-14T05:37:19.526Z,1.25
2022-10-14T05:39:46.578Z,0.82
2022-10-14T05:42:13.141Z,0.90
2022-10-14T05:44:39.721Z,1.00
2022-10-14T05:47:06.307Z,1.00
2022-10-14T05:49:32.865Z,0.82
2022-10-14T05:51:59.432Z,1.02
2022-10-14T05:54:25.999Z,0.80
2022-10-14T05:56:52.612Z,0.93
2022-10-14T05:59:19.637Z,1.10
2022-10-14T06:01:46.196Z,0.82
2022-10-14T06:04:20.672Z,1.00
2022-10-14T06:06:47.620Z,1.00
2022-10-14T06:09:14.699Z,1.00
2022-10-14T06:11:41.264Z,1.02
2022-10-14T06:14:08.328Z,1.23
2022-10-14T06:16:34.904Z,1.10
2022-10-14T06:19:01.589Z,1.00
2022-10-14T06:21:28.519Z,1.08
2022-10-14T06:23:55.114Z,0.82
2022-10-14T06:26:21.720Z,1.45
2022-10-14T06:28:48.384Z,1.20
2022-10-14T06:31:14.995Z,1.20
2022-10-14T06:33:43.655Z,1.00
2022-10-14T06:36:10.697Z,1.15
2022-10-14T06:38:37.343Z,1.05
2022-10-14T06:41:04.117Z,1.02
2022-10-14T06:43:30.695Z,1.10
2022-10-14T06:45:58.648Z,1.20
2022-10-14T06:48:25.211Z,0.90
2022-10-14T06:50:52.149Z,1.20
2022-10-14T06:53:19.219Z,1.33
2022-10-14T06:55:46.112Z,1.20
2022-10-14T06:58:12.660Z,1.13
2022-10-14T07:00:40.069Z,1.00
2022-10-14T07:03:08.736Z,1.17
2022-10-14T07:05:36.056Z,1.10
2022-10-14T07:08:02.620Z,1.40
2022-10-14T07:10:29.211Z,1.10
2022-10-14T07:12:56.320Z,1.10
2022-10-14T07:15:23.146Z,1.27
2022-10-14T07:17:49.759Z,0.82
2022-10-14T07:20:16.746Z,0.90
2022-10-14T07:22:43.355Z,1.33
2022-10-14T07:25:10.482Z,1.00
2022-10-14T07:27:37.154Z,1.10
2022-10-14T07:30:05.633Z,1.10
2022-10-14T07:32:34.516Z,1.15
2022-10-14T07:35:01.083Z,1.27
2022-10-14T07:37:27.620Z,1.10
2022-10-14T07:39:54.202Z,1.30
2022-10-14T07:44:54.313Z,1.20
2022-10-14T07:47:21.270Z,1.40
2022-10-14T07:49:48.049Z,1.10
2022-10-14T07:52:15.702Z,1.20
2022-10-14T07:54:42.358Z,1.38
2022-10-14T07:57:08.938Z,1.20
2022-10-14T07:59:35.513Z,1.30
2022-10-14T08:02:02.083Z,1.27
2022-10-14T08:04:29.122Z,1.40
2022-10-14T08:06:55.789Z,1.23
2022-10-14T08:09:22.503Z,1.40
2022-10-14T08:11:49.434Z,1.60
2022-10-14T08:14:16.537Z,1.50
2022-10-14T08:16:43.120Z,1.33
2022-10-14T08:19:14.485Z,1.50
2022-10-14T08:21:43.234Z,1.67
2022-10-14T08:24:10.496Z,1.73
2022-10-14T08:26:39.509Z,1.50
2022-10-14T08:29:09.808Z,1.60
2022-10-14T08:31:36.743Z,1.45
2022-10-14T08:34:03.436Z,1.90
2022-10-14T08:36:30.116Z,1.48
2022-10-14T08:38:56.836Z,1.55
2022-10-14T08:41:38.671Z,1.30
2022-10-14T08:44:11.765Z,1.50
2022-10-14T08:46:52.188Z,1.42
2022-10-14T08:49:35.533Z,1.15
2022-10-14T08:52:08.798Z,1.60
2022-10-14T08:54:43.563Z,1.40
2022-10-14T08:57:18.802Z,1.50
2022-10-14T08:59:45.571Z,1.35
2022-10-14T09:02:38.693Z,1.38
2022-10-14T09:05:06.339Z,1.33
2022-10-14T09:07:35.598Z,1.63
2022-10-14T09:10:14.722Z,1.73
2022-10-14T09:12:42.907Z,1.67
2022-10-14T09:15:35.406Z,1.30
2022-10-14T09:18:14.403Z,1.50
2022-10-14T09:20:42.154Z,1.20
2022-10-14T09:23:20.481Z,1.23
2022-10-14T09:25:59.234Z,1.50
2022-10-14T09:28:41.264Z,1.58
2022-10-14T09:31:12.275Z,1.85
2022-10-14T09:33:42.401Z,1.55
2022-10-14T09:36:22.118Z,1.38
2022-10-14T09:38:53.239Z,1.65
2022-10-14T09:41:30.771Z,1.70
2022-10-14T09:44:18.605Z,1.73
2022-10-14T09:46:52.389Z,1.75
2022-10-14T09:49:33.963Z,1.70
2022-10-14T09:52:02.698Z,1.92
2022-10-14T09:54:31.717Z,1.53
2022-10-14T09:57:02.416Z,2.00
2022-10-14T09:59:29.601Z,1.80
2022-10-14T10:02:03.976Z,1.70
2022-10-14T10:04:45.135Z,1.80
2022-10-14T10:07:38.025Z,1.77
2022-10-14T10:10:18.594Z,1.77
2022-10-14T10:12:47.187Z,1.83
2022-10-14T10:15:21.386Z,2.05
2022-10-14T10:17:49.674Z,1.98
2022-10-14T10:20:33.395Z,2.10
2022-10-14T10:23:25.184Z,1.85
2022-10-14T10:25:52.497Z,1.50
2022-10-14T10:28:32.903Z,1.60
2022-10-14T10:31:03.616Z,1.55
2022-10-14T10:33:59.914Z,1.47
2022-10-14T10:36:35.629Z,1.40
2022-10-14T10:39:12.632Z,1.38
2022-10-14T10:41:46.791Z,1.60
2022-10-14T10:44:47.458Z,1.40
2022-10-14T10:47:27.693Z,1.50
2022-10-14T10:50:20.402Z,1.80
2022-10-14T10:53:01.569Z,1.20
2022-10-14T10:56:00.096Z,1.40
2022-10-14T10:58:41.817Z,1.60
2022-10-14T11:01:21.356Z,1.30
2022-10-14T11:04:02.348Z,1.50
2022-10-14T11:07:18.758Z,1.50
2022-10-14T11:10:28.526Z,1.42
2022-10-14T11:13:05.503Z,1.30
2022-10-14T11:15:42.036Z,1.47
2022-10-14T11:18:30.798Z,1.40
2022-10-14T11:21:29.437Z,1.50
2022-10-14T11:24:25.146Z,1.25
2022-10-14T11:27:02.614Z,1.20
2022-10-14T11:29:46.841Z,1.40
2022-10-14T11:32:22.156Z,1.23
2022-10-14T11:35:17.225Z,1.40
2022-10-14T11:37:56.080Z,1.13
2022-10-14T11:40:49.996Z,1.40
2022-10-14T11:43:29.478Z,1.20
2022-10-14T11:46:09.129Z,1.35
2022-10-14T11:48:45.075Z,1.50
2022-10-14T11:51:30.735Z,1.20
2022-10-14T11:54:16.151Z,1.45
2022-10-14T11:56:51.008Z,1.40
2022-10-14T11:59:45.357Z,1.20
2022-10-14T12:02:39.428Z,1.13
2022-10-14T12:05:08.739Z,1.20
2022-10-14T12:07:45.484Z,1.23
2022-10-14T12:10:26.826Z,1.30
2022-10-14T12:12:54.816Z,1.10
2022-10-14T12:15:24.326Z,1.30
2022-10-14T12:17:59.817Z,1.02
2022-10-14T12:20:47.628Z,0.90
2022-10-14T12:23:44.962Z,1.27
2022-10-14T12:26:34.698Z,1.20
2022-10-14T12:29:03.877Z,1.10
2022-10-14T12:31:37.418Z,0.98
2022-10-14T12:34:16.087Z,1.20
2022-10-14T12:36:45.414Z,1.13
2022-10-14T12:39:17.870Z,1.38
2022-10-14T12:41:59.469Z,1.40
2022-10-14T12:44:49.689Z,1.27
2022-10-14T12:47:18.345Z,1.00
2022-10-14T12:49:50.019Z,1.43
2022-10-14T12:52:22.197Z,1.05
2022-10-14T12:57:29.371Z,1.27
2022-10-14T13:00:00.821Z,1.10
2022-10-14T13:02:35.152Z,1.05
2022-10-14T13:05:22.154Z,1.00
2022-10-14T13:08:14.652Z,1.00
2022-10-14T13:10:46.874Z,1.00
2022-10-14T13:13:48.015Z,1.05
2022-10-14T13:16:23.407Z,1.25
2022-10-14T13:18:54.289Z,0.80
2022-10-14T13:21:31.197Z,1.00
2022-10-14T13:24:05.833Z,0.90
2022-10-14T13:26:39.342Z,0.98
2022-10-14T13:29:20.763Z,0.80
2022-10-14T13:31:53.386Z,1.00
2022-10-14T13:34:41.626Z,0.90
2022-10-14T13:37:38.049Z,0.82
2022-10-14T13:40:30.273Z,1.10
2022-10-14T13:42:59.347Z,1.00
2022-10-14T13:45:37.041Z,1.13
2022-10-14T13:48:09.970Z,1.20
2022-10-14T13:50:38.247Z,0.90
2022-10-14T13:53:18.058Z,1.00
2022-10-14T13:55:53.119Z,1.10
2022-10-14T13:58:22.970Z,1.00
2022-10-14T14:01:02.639Z,0.85
2022-10-14T14:03:34.195Z,0.90
2022-10-14T14:06:02.243Z,0.80
2022-10-14T14:08:40.308Z,0.90
2022-10-14T14:11:18.005Z,0.82
2022-10-14T14:14:08.051Z,1.38
2022-10-14T14:16:56.454Z,0.80
2022-10-14T14:19:27.905Z,0.90
2022-10-14T14:22:15.996Z,0.80
2022-10-14T14:24:42.981Z,0.98
2022-10-14T14:27:13.866Z,0.82
2022-10-14T14:29:43.069Z,0.90
2022-10-14T14:32:18.707Z,0.90
2022-10-14T14:34:47.839Z,0.93
2022-10-14T14:37:53.284Z,0.70
2022-10-14T14:40:28.392Z,0.75
2022-10-14T14:43:00.893Z,0.90
2022-10-14T14:45:35.092Z,0.70
2022-10-14T14:48:06.748Z,0.80
2022-10-14T14:50:43.144Z,0.65
2022-10-14T14:53:17.591Z,0.80
2022-10-14T14:55:53.357Z,0.80
2022-10-14T14:58:31.850Z,0.60
2022-10-14T15:00:59.165Z,0.70
2022-10-14T15:03:28.522Z,0.80
2022-10-14T15:05:59.415Z,0.70
2022-10-14T15:08:29.577Z,0.70
2022-10-14T15:10:58.044Z,0.68
2022-10-14T15:13:38.555Z,0.80
2022-10-14T15:16:06.011Z,0.50
2022-10-14T15:18:32.698Z,0.75
2022-10-14T15:21:19.189Z,0.80
2022-10-14T15:24:00.499Z,0.70
2022-10-14T15:26:34.735Z,0.67
2022-10-14T15:29:15.606Z,0.70
2022-10-14T15:31:45.698Z,0.60
2022-10-14T15:34:17.443Z,0.90
2022-10-14T15:36:44.235Z,0.63
2022-10-14T15:39:13.915Z,0.63
2022-10-14T15:41:41.987Z,0.60
2022-10-14T15:44:08.575Z,0.70
2022-10-14T15:46:55.580Z,0.70
2022-10-14T15:49:51.272Z,0.70
2022-10-14T15:52:19.469Z,0.60
2022-10-14T15:54:48.981Z,0.70
2022-10-14T15:57:16.898Z,0.60
2022-10-14T15:59:43.655Z,0.70
2022-10-14T16:02:25.876Z,0.80
2022-10-14T16:05:18.955Z,0.70
2022-10-14T16:07:40.941Z,0.90
2022-10-14T16:10:09.161Z,0.80
2022-10-14T16:12:35.846Z,0.68
2022-10-14T16:17:31.920Z,0.82
2022-10-14T16:19:58.559Z,0.57
2022-10-14T16:22:25.135Z,0.60
2022-10-14T16:24:51.730Z,0.60
2022-10-14T16:27:19.013Z,0.85
2022-10-14T16:29:45.891Z,0.80
2022-10-14T16:32:13.389Z,0.50
2022-10-14T16:34:39.966Z,0.80
2022-10-14T16:37:07.225Z,0.70
2022-10-14T16:39:33.793Z,0.70
2022-10-14T16:42:00.548Z,0.80
2022-10-14T16:44:27.460Z,0.65
2022-10-14T16:47:14.576Z,0.60
2022-10-14T16:49:42.723Z,0.63
2022-10-14T16:52:09.512Z,0.60
2022-10-14T16:54:36.613Z,0.50
2022-10-14T16:57:04.206Z,0.57
2022-10-14T16:59:31.289Z,0.70
2022-10-14T17:01:58.739Z,0.70
2022-10-14T17:04:25.549Z,0.50
2022-10-14T17:06:52.526Z,0.60
2022-10-14T17:09:19.387Z,0.57
2022-10-14T17:11:46.901Z,0.50
2022-10-14T17:14:16.612Z,0.50
2022-10-14T17:16:43.193Z,0.60
2022-10-14T17:19:11.242Z,0.80
2022-10-14T17:21:38.981Z,0.50
2022-10-14T17:24:05.703Z,0.50
2022-10-14T17:26:33.659Z,0.50
2022-10-14T17:29:01.226Z,0.60
2022-10-14T17:31:28.931Z,0.50
2022-10-14T17:33:55.597Z,0.47
2022-10-14T17:36:28.212Z,0.50
2022-10-14T17:38:55.804Z,0.50
2022-10-14T17:41:23.990Z,0.50
2022-10-14T17:43:51.737Z,0.50
2022-10-14T17:46:21.258Z,0.55
2022-10-14T17:48:52.990Z,0.55
2022-10-14T17:51:25.243Z,0.60
2022-10-14T17:53:57.166Z,0.60
2022-10-14T17:56:24.495Z,0.60
2022-10-14T17:58:57.004Z,0.55
2022-10-14T18:01:37.061Z,0.60
2022-10-14T18:04:04.220Z,0.50
2022-10-14T18:06:33.515Z,0.60
2022-10-14T18:09:05.964Z,0.63
2022-10-14T18:11:49.904Z,0.50
2022-10-14T18:14:21.690Z,0.60
2022-10-14T18:16:48.606Z,0.70
2022-10-14T18:19:16.657Z,0.70
2022-10-14T18:21:44.402Z,0.60
2022-10-14T18:24:11.922Z,0.60
2022-10-14T18:26:40.604Z,0.70
2022-10-14T18:29:07.960Z,0.50
2022-10-14T18:31:34.905Z,0.52
2022-10-14T18:34:01.909Z,0.60
2022-10-14T18:36:30.274Z,0.50
2022-10-14T18:39:02.220Z,0.70
2022-10-14T18:41:30.097Z,0.50
2022-10-14T18:43:59.747Z,0.60
2022-10-14T18:46:31.896Z,0.60
2022-10-14T18:49:00.709Z,0.40
2022-10-14T18:51:34.745Z,0.60
2022-10-14T18:54:07.202Z,0.70
2022-10-14T18:56:38.741Z,0.70
2022-10-14T18:59:11.572Z,0.70
2022-10-14T19:01:39.357Z,0.60
2022-10-14T19:04:08.457Z,0.60
2022-10-14T19:06:35.712Z,0.63
2022-10-14T19:09:02.862Z,0.60
2022-10-14T19:11:32.822Z,0.50
2022-10-14T19:14:00.828Z,0.52
2022-10-14T19:16:30.619Z,0.57
2022-10-14T19:18:59.744Z,0.70
2022-10-14T19:21:30.452Z,0.60
2022-10-14T19:23:58.541Z,0.60
2022-10-14T19:26:27.603Z,0.57
2022-10-14T19:28:54.445Z,0.70
2022-10-14T19:31:24.882Z,0.63
2022-10-14T19:33:52.987Z,0.70
2022-10-14T19:36:21.089Z,0.50
2022-10-14T19:38:52.161Z,0.52
2022-10-14T19:41:19.100Z,0.50
2022-10-14T19:43:45.673Z,0.65
2022-10-14T19:46:13.914Z,0.63
2022-10-14T19:48:40.977Z,0.60
2022-10-14T19:51:11.752Z,0.60
2022-10-14T19:53:40.139Z,0.70
2022-10-14T19:56:09.557Z,0.60
2022-10-14T19:58:38.643Z,0.75
2022-10-14T20:01:16.318Z,0.68
2022-10-14T20:03:43.348Z,0.70
2022-10-14T20:06:12.358Z,0.77
2022-10-14T20:08:38.948Z,0.70
2022-10-14T20:11:08.055Z,0.70
2022-10-14T20:13:35.321Z,0.63
2022-10-14T20:16:02.472Z,0.70
2022-10-14T20:18:29.984Z,1.00
2022-10-14T20:20:57.327Z,0.82
2022-10-14T20:23:25.323Z,0.70
2022-10-14T20:25:52.241Z,0.50
2022-10-14T20:28:19.744Z,0.80
2022-10-14T20:30:47.942Z,0.80
2022-10-14T20:33:14.972Z,0.70
2022-10-14T20:35:41.520Z,0.60
2022-10-14T20:38:08.215Z,0.70
2022-10-14T20:40:35.731Z,0.70
2022-10-14T20:43:03.276Z,0.73
2022-10-14T20:45:29.819Z,0.80
2022-10-14T20:47:56.456Z,0.80
2022-10-14T20:50:23.145Z,0.70
2022-10-14T20:52:49.777Z,0.60
2022-10-14T20:55:16.400Z,0.85
2022-10-14T20:57:42.969Z,0.90
2022-10-14T21:00:10.133Z,0.75
2022-10-14T21:02:36.805Z,0.90
2022-10-14T21:05:03.754Z,0.90
2022-10-14T21:07:30.314Z,0.70
2022-10-14T21:09:56.873Z,0.93
2022-10-14T21:12:23.572Z,0.93
2022-10-14T21:14:50.303Z,0.80
2022-10-14T21:17:16.907Z,0.80
2022-10-14T21:19:43.457Z,0.90
2022-10-14T21:22:10.017Z,0.60
2022-10-14T21:24:40.674Z,0.90
2022-10-14T21:27:07.658Z,0.75
2022-10-14T21:29:34.305Z,0.73
2022-10-14T21:32:02.562Z,0.90
2022-10-14T21:34:30.116Z,0.80
2022-10-14T21:36:57.254Z,0.80
2022-10-14T21:39:26.822Z,0.80
2022-10-14T21:41:53.485Z,0.70
2022-10-14T21:44:21.065Z,1.10
2022-10-14T21:46:48.351Z,0.70
2022-10-14T21:49:15.731Z,0.80
2022-10-14T21:51:42.417Z,0.82
2022-10-14T21:54:12.198Z,1.13
2022-10-14T21:56:39.337Z,0.90
2022-10-14T21:59:06.867Z,1.52
2022-10-14T22:01:33.806Z,1.20
2022-10-14T22:04:05.773Z,1.40
2022-10-14T22:06:34.764Z,1.30
2022-10-14T22:09:03.916Z,1.30
2022-10-14T22:11:33.963Z,1.15
2022-10-14T22:14:02.905Z,1.30
2022-10-14T22:16:30.000Z,1.30
2022-10-14T22:18:59.161Z,1.20
2022-10-14T22:21:27.122Z,1.35
2022-10-14T22:23:53.923Z,1.40
2022-10-14T22:26:23.276Z,1.10
2022-10-14T22:28:50.345Z,1.35
2022-10-14T22:31:19.771Z,1.20
2022-10-14T22:33:48.863Z,1.27
2022-10-14T22:36:23.846Z,1.08
2022-10-14T22:38:52.208Z,1.20
2022-10-14T22:41:19.438Z,1.20
2022-10-14T22:43:51.069Z,1.40
2022-10-14T22:46:20.433Z,1.10
2022-10-14T22:48:56.101Z,1.23
2022-10-14T22:53:54.374Z,1.30
2022-10-14T22:56:23.198Z,1.42
2022-10-14T22:58:57.769Z,1.23
2022-10-14T23:01:27.816Z,1.10
2022-10-14T23:03:55.978Z,1.13
2022-10-14T23:06:22.803Z,1.37
2022-10-14T23:08:49.384Z,1.10
2022-10-14T23:11:21.101Z,0.88
2022-10-14T23:13:48.058Z,1.20
2022-10-14T23:16:17.361Z,1.27
2022-10-14T23:18:45.208Z,1.02
2022-10-14T23:21:23.808Z,1.13
2022-10-14T23:23:51.566Z,1.20
2022-10-14T23:26:21.418Z,1.30
2022-10-14T23:28:52.694Z,1.00
2022-10-14T23:31:22.888Z,1.23
2022-10-14T23:33:51.474Z,1.33
2022-10-14T23:36:19.336Z,1.05
2022-10-14T23:38:46.543Z,1.48
2022-10-14T23:41:13.670Z,1.30
2022-10-14T23:43:40.954Z,1.13
2022-10-14T23:46:08.398Z,1.30
2022-10-14T23:48:35.801Z,1.13
2022-10-14T23:51:02.493Z,1.15
2022-10-14T23:53:29.064Z,1.48
2022-10-14T23:55:56.491Z,1.35
2022-10-14T23:58:24.428Z,1.30
